Time;durP1;ratioP1;P1;durP2;ratioP2;P2;SDS_P1;SDS_P2;PMS_P1;PMS_P2;Temp;Humidity;BMP_temperature;BMP_pressure;BME280_temperature;BME280_humidity;BME280_pressure;Samples;Min_cycle;Max_cycle;Signal;HPM_P1;HPM_P2
2022/11/10 00:01:06;;;;;;;6.15;4.90;;;21.30;40.40;;;;;;5040548;28;20109;-66
2022/11/10 00:03:33;;;;;;;3.53;2.10;;;21.40;40.40;;;;;;5044821;28;20505;-67
2022/11/10 00:06:05;;;;;;;10.90;6.85;;;21.50;39.80;;;;;;5041185;28;20084;-66
2022/11/10 00:08:32;;;;;;;5.75;1.30;;;21.30;40.60;;;;;;5041876;28;20160;-67
2022/11/10 00:11:00;;;;;;;2.58;0.95;;;21.30;40.70;;;;;;5037245;28;20098;-70
2022/11/10 00:13:32;;;;;;;3.45;0.80;;;21.20;40.90;;;;;;5044243;28;20131;-67
2022/11/10 00:18:46;;;;;;;4.68;0.70;;;21.40;41.40;;;;;;5035662;28;20139;-67
2022/11/10 00:21:14;;;;;;;3.78;0.98;;;21.10;41.60;;;;;;5040857;28;20157;-69
2022/11/10 00:23:40;;;;;;;6.63;0.90;;;21.00;42.70;;;;;;5040782;28;20184;-66
2022/11/10 00:26:16;;;;;;;3.33;0.60;;;20.70;42.10;;;;;;5042953;28;20104;-66
2022/11/10 00:28:43;;;;;;;8.20;1.30;;;20.60;42.20;;;;;;5039116;28;20135;-65
2022/11/10 00:31:11;;;;;;;8.70;2.30;;;20.50;42.50;;;;;;5043400;28;20068;-67
2022/11/10 00:33:39;;;;;;;6.45;1.60;;;20.40;42.70;;;;;;5039781;28;20066;-68
2022/11/10 00:36:06;;;;;;;2.22;0.68;;;20.30;43.00;;;;;;5043219;28;20077;-68
2022/11/10 00:38:33;;;;;;;3.33;0.80;;;20.20;42.90;;;;;;5039767;28;20232;-67
2022/11/10 00:41:00;;;;;;;6.82;0.95;;;20.20;43.30;;;;;;5040648;28;20105;-69
2022/11/10 00:43:28;;;;;;;4.30;0.77;;;20.10;43.90;;;;;;5040982;28;20131;-68
2022/11/10 00:45:55;;;;;;;4.32;1.10;;;20.00;43.60;;;;;;5041180;28;20066;-66
2022/11/10 00:48:21;;;;;;;6.53;1.60;;;20.00;43.80;;;;;;5047575;28;20579;-67
2022/11/10 00:50:48;;;;;;;5.80;2.00;;;19.90;43.90;;;;;;5039279;28;20078;-69
2022/11/10 00:53:14;;;;;;;7.57;4.07;;;19.90;44.10;;;;;;5041685;28;20548;-69
2022/11/10 00:55:41;;;;;;;5.35;1.85;;;19.90;44.30;;;;;;5039691;28;20442;-66
2022/11/10 00:58:08;;;;;;;7.93;2.15;;;19.80;44.20;;;;;;5037278;28;20535;-69
2022/11/10 01:00:35;;;;;;;8.80;1.75;;;19.70;44.60;;;;;;5040150;28;20121;-67
2022/11/10 01:03:01;;;;;;;9.52;2.20;;;19.70;44.70;;;;;;5043659;28;20160;-67
2022/11/10 01:05:28;;;;;;;10.55;2.30;;;19.70;45.20;;;;;;5041200;28;20078;-67
2022/11/10 01:07:58;;;;;;;7.22;1.90;;;19.70;45.00;;;;;;5039383;28;20089;-66
2022/11/10 01:10:25;;;;;;;4.43;1.58;;;19.60;45.30;;;;;;5039115;28;20077;-69
2022/11/10 01:12:52;;;;;;;5.55;1.90;;;19.50;46.00;;;;;;5040722;28;20523;-67
2022/11/10 01:15:19;;;;;;;10.27;1.98;;;19.40;45.60;;;;;;5041723;28;20135;-70
2022/11/10 01:17:46;;;;;;;6.40;1.30;;;19.40;46.00;;;;;;5041526;28;20080;-68
2022/11/10 01:20:12;;;;;;;4.85;1.48;;;19.30;46.20;;;;;;5040668;28;20528;-67
2022/11/10 01:22:39;;;;;;;10.00;2.15;;;19.30;46.70;;;;;;5047052;28;20073;-63
2022/11/10 01:25:06;;;;;;;7.70;2.13;;;19.30;46.70;;;;;;5067177;28;20093;-65
2022/11/10 01:27:33;;;;;;;13.50;2.30;;;19.20;47.00;;;;;;5036628;28;20089;-68
2022/11/10 01:29:59;;;;;;;4.07;1.83;;;19.20;47.30;;;;;;5043035;28;20066;-67
2022/11/10 01:32:25;;;;;;;3.78;1.75;;;19.10;47.70;;;;;;5053416;28;20070;-70
2022/11/10 01:34:52;;;;;;;8.32;1.77;;;19.00;47.90;;;;;;5039793;28;20073;-68
2022/11/10 01:37:18;;;;;;;7.20;1.85;;;19.00;48.10;;;;;;5038033;28;20077;-68
2022/11/10 01:39:45;;;;;;;7.93;1.50;;;19.00;48.50;;;;;;5039891;28;20094;-67
2022/11/10 01:42:11;;;;;;;6.68;1.75;;;19.00;48.70;;;;;;5040442;28;20430;-68
2022/11/10 01:44:40;;;;;;;4.72;1.70;;;18.90;48.80;;;;;;5039346;28;20078;-68
2022/11/10 01:47:07;;;;;;;10.02;1.95;;;18.80;49.00;;;;;;5041718;28;20093;-67
2022/11/10 01:49:35;;;;;;;12.75;2.42;;;18.70;49.40;;;;;;5042511;28;20070;-68
2022/11/10 01:52:13;;;;;;;7.15;2.10;;;18.70;49.30;;;;;;5045075;28;20066;-67
2022/11/10 01:54:43;;;;;;;7.18;1.95;;;18.60;49.70;;;;;;5038853;28;20093;-69
2022/11/10 01:57:12;;;;;;;6.63;2.33;;;18.60;49.80;;;;;;5039120;28;20123;-67
2022/11/10 01:59:46;;;;;;;3.95;1.90;;;18.50;50.10;;;;;;5036362;28;20081;-67
2022/11/10 02:02:38;;;;;;;7.07;2.28;;;18.50;50.00;;;;;;5034655;28;20147;-68
2022/11/10 02:05:06;;;;;;;6.68;1.88;;;18.50;49.90;;;;;;5030822;28;20466;-69
2022/11/10 02:07:33;;;;;;;8.80;2.15;;;18.50;49.80;;;;;;5053687;28;20085;-68
2022/11/10 02:10:02;;;;;;;4.60;1.60;;;18.50;49.90;;;;;;5043558;28;20062;-68
2022/11/10 02:12:36;;;;;;;7.05;2.00;;;18.40;50.00;;;;;;5040455;28;20534;-69
2022/11/10 02:15:04;;;;;;;6.25;2.10;;;18.30;50.20;;;;;;5039751;28;20066;-63
2022/11/10 02:17:31;;;;;;;7.60;1.63;;;18.30;50.20;;;;;;5034399;28;20081;-64
2022/11/10 02:20:03;;;;;;;5.50;1.52;;;18.30;50.50;;;;;;5040671;28;20565;-63
2022/11/10 02:22:31;;;;;;;6.13;1.73;;;18.20;50.50;;;;;;5057943;28;20138;-63
2022/11/10 02:24:57;;;;;;;5.53;2.25;;;18.20;50.70;;;;;;5049004;28;20074;-64
2022/11/10 02:27:24;;;;;;;5.07;1.60;;;18.20;50.90;;;;;;5047378;28;20208;-62
2022/11/10 02:29:50;;;;;;;6.53;2.10;;;18.10;51.10;;;;;;5047957;28;20081;-64
2022/11/10 02:32:17;;;;;;;6.32;2.15;;;18.10;51.30;;;;;;5045470;28;20078;-65
2022/11/10 02:34:43;;;;;;;8.00;2.03;;;17.90;51.50;;;;;;5042686;28;20078;-64
2022/11/10 02:37:10;;;;;;;6.18;2.50;;;17.90;51.90;;;;;;5040204;28;20081;-66
2022/11/10 02:39:37;;;;;;;7.75;3.03;;;17.90;52.10;;;;;;5036458;28;20094;-66
2022/11/10 02:42:09;;;;;;;4.95;2.50;;;17.80;52.20;;;;;;5041348;28;20070;-65
2022/11/10 02:44:39;;;;;;;8.23;2.80;;;17.90;52.60;;;;;;5043917;28;20415;-66
2022/11/10 02:47:06;;;;;;;8.45;2.60;;;17.80;52.90;;;;;;5043940;28;20618;-64
2022/11/10 02:49:33;;;;;;;11.50;4.80;;;17.80;53.30;;;;;;5045463;28;20167;-65
2022/11/10 02:51:59;;;;;;;11.27;3.22;;;17.70;53.60;;;;;;5041248;28;20074;-64
2022/11/10 02:54:25;;;;;;;6.70;2.75;;;17.60;53.90;;;;;;5045638;28;20089;-68
2022/11/10 02:56:52;;;;;;;6.47;2.20;;;17.60;54.90;;;;;;5042385;28;20510;-65
2022/11/10 02:59:18;;;;;;;6.30;2.47;;;17.60;54.50;;;;;;5044186;28;20086;-65
2022/11/10 03:01:45;;;;;;;8.98;2.78;;;17.60;54.70;;;;;;5042480;28;20193;-65
2022/11/10 03:04:11;;;;;;;6.85;2.15;;;17.50;55.00;;;;;;5042253;28;20085;-65
2022/11/10 03:06:37;;;;;;;5.85;2.08;;;17.50;55.30;;;;;;5043926;28;20097;-65
2022/11/10 03:09:04;;;;;;;10.60;2.72;;;17.40;55.50;;;;;;5042452;28;20089;-65
2022/11/10 03:11:30;;;;;;;8.10;2.30;;;17.40;55.80;;;;;;5048146;28;20077;-66
2022/11/10 03:13:57;;;;;;;8.88;2.83;;;17.40;55.90;;;;;;5039486;28;20173;-64
2022/11/10 03:16:23;;;;;;;8.15;2.70;;;17.40;55.90;;;;;;5049712;28;20112;-65
2022/11/10 03:18:49;;;;;;;10.13;2.05;;;17.40;55.90;;;;;;5045023;28;20065;-66
2022/11/10 03:21:15;;;;;;;;;;;17.30;56.20;;;;;;5046515;28;20070;-66
2022/11/10 03:23:42;;;;;;;10.18;2.22;;;17.30;56.50;;;;;;5045848;28;19979;-67
2022/11/10 03:26:08;;;;;;;6.85;2.45;;;17.20;56.50;;;;;;5043888;28;20450;-67
2022/11/10 03:28:35;;;;;;;7.70;2.25;;;17.20;56.80;;;;;;5038101;28;20100;-67
2022/11/10 03:31:01;;;;;;;4.00;1.67;;;17.20;56.80;;;;;;5040647;28;20457;-67
2022/11/10 03:33:27;;;;;;;6.53;1.50;;;17.20;56.90;;;;;;5044924;28;20120;-66
2022/11/10 03:35:54;;;;;;;8.15;2.00;;;17.20;57.40;;;;;;5037540;28;20062;-67
2022/11/10 03:38:20;;;;;;;;;;;17.20;57.60;;;;;;5040780;28;20097;-65
2022/11/10 03:40:48;;;;;;;4.90;1.65;;;17.20;57.70;;;;;;5048397;28;19999;-66
2022/11/10 03:43:15;;;;;;;10.13;2.20;;;17.10;58.00;;;;;;5045708;28;20074;-66
2022/11/10 03:45:43;;;;;;;7.80;2.20;;;17.00;58.20;;;;;;5046132;28;20437;-66
2022/11/10 03:48:10;;;;;;;10.52;2.55;;;17.00;58.20;;;;;;5040633;28;20131;-66
2022/11/10 03:50:36;;;;;;;6.95;2.53;;;16.90;58.40;;;;;;5046982;28;20528;-67
2022/11/10 03:53:03;;;;;;;11.63;3.25;;;16.90;58.60;;;;;;5060289;28;20438;-65
2022/11/10 03:55:29;;;;;;;;;;;16.90;58.60;;;;;;5038969;28;20514;-67
2022/11/10 03:57:59;;;;;;;12.68;2.72;;;16.90;58.70;;;;;;5044205;28;20048;-66
2022/11/10 04:00:26;;;;;;;8.13;2.20;;;16.90;58.70;;;;;;5046430;28;20113;-66
2022/11/10 04:02:52;;;;;;;13.65;2.60;;;16.90;58.50;;;;;;5040195;28;20082;-65
2022/11/10 04:10:55;;;;;;;7.30;2.10;;;16.90;58.30;;;;;;5041919;28;20085;-65
2022/11/10 04:16:06;;;;;;;6.32;2.17;;;16.80;58.40;;;;;;5044715;28;21653;-66
2022/11/10 04:18:33;;;;;;;8.63;2.47;;;16.70;58.70;;;;;;5035532;28;20069;-64
2022/11/10 04:21:02;;;;;;;7.13;2.70;;;16.60;58.80;;;;;;5039183;28;20070;-65
2022/11/10 04:23:33;;;;;;;6.32;2.35;;;16.60;59.00;;;;;;5039767;28;20073;-63
2022/11/10 04:28:48;;;;;;;7.13;3.45;;;16.50;59.20;;;;;;5035372;28;20092;-65
2022/11/10 04:31:16;;;;;;;5.80;3.60;;;16.40;59.40;;;;;;5039162;28;20070;-65
2022/11/10 04:33:44;;;;;;;21.35;4.18;;;16.50;59.50;;;;;;5044742;28;20081;-65
2022/11/10 04:36:13;;;;;;;8.77;4.50;;;16.40;59.40;;;;;;5041089;28;20074;-65
2022/11/10 04:38:40;;;;;;;14.68;4.82;;;16.40;59.70;;;;;;5042138;28;20423;-67
2022/11/10 04:41:08;;;;;;;7.45;4.70;;;16.30;59.80;;;;;;5043138;28;20090;-66
2022/11/10 04:43:34;;;;;;;14.77;6.93;;;16.30;59.80;;;;;;5041931;28;20065;-65
2022/11/10 04:46:02;;;;;;;12.27;5.75;;;16.30;60.00;;;;;;5045822;28;20081;-65
2022/11/10 04:48:29;;;;;;;10.95;6.05;;;16.20;60.30;;;;;;5043908;28;20069;-67
2022/11/10 04:50:56;;;;;;;11.40;5.68;;;16.20;60.60;;;;;;5043068;28;20102;-66
2022/11/10 04:53:24;;;;;;;9.35;5.03;;;16.10;60.70;;;;;;5042820;28;20123;-66
2022/11/10 04:55:51;;;;;;;9.73;4.40;;;16.10;61.10;;;;;;5040630;28;20111;-64
2022/11/10 04:58:17;;;;;;;7.63;3.00;;;16.10;60.90;;;;;;5039806;28;20085;-65
2022/11/10 05:00:44;;;;;;;5.50;2.45;;;16.10;61.20;;;;;;5042857;28;20470;-67
2022/11/10 05:03:12;;;;;;;6.72;2.50;;;16.00;61.50;;;;;;5035690;28;20085;-66
2022/11/10 05:05:38;;;;;;;4.75;2.45;;;16.00;61.60;;;;;;5045751;28;20424;-66
2022/11/10 05:08:06;;;;;;;4.13;2.22;;;16.00;61.70;;;;;;5045468;28;20092;-66
2022/11/10 05:10:34;;;;;;;6.15;2.13;;;16.00;61.90;;;;;;5035749;28;20115;-65
2022/11/10 05:13:02;;;;;;;5.43;2.45;;;15.90;62.30;;;;;;5046930;28;20207;-65
2022/11/10 05:15:28;;;;;;;4.32;2.60;;;15.90;62.50;;;;;;5039892;28;20681;-66
2022/11/10 05:17:55;;;;;;;3.97;1.80;;;15.80;62.60;;;;;;5041290;28;20465;-66
2022/11/10 05:20:22;;;;;;;;;;;15.80;62.90;;;;;;5038525;28;20112;-66
2022/11/10 05:25:37;;;;;;;6.20;2.45;;;15.80;63.30;;;;;;5039307;28;20093;-65
2022/11/10 05:28:05;;;;;;;5.95;2.95;;;15.70;63.40;;;;;;5045329;28;20542;-66
2022/11/10 05:30:34;;;;;;;9.48;3.13;;;15.70;63.40;;;;;;5040882;28;20129;-66
2022/11/10 05:33:01;;;;;;;10.20;3.45;;;15.80;63.40;;;;;;5042676;28;20075;-64
2022/11/10 05:35:27;;;;;;;7.97;2.90;;;15.80;63.40;;;;;;5038628;28;20070;-65
2022/11/10 05:37:53;;;;;;;;;;;15.80;63.80;;;;;;5045645;28;20627;-65
2022/11/10 05:40:21;;;;;;;9.55;2.00;;;15.70;63.80;;;;;;5038672;28;20053;-66
2022/11/10 05:42:52;;;;;;;6.47;2.05;;;15.70;64.30;;;;;;5040291;28;20128;-66
2022/11/10 05:45:21;;;;;;;4.20;1.40;;;15.70;64.40;;;;;;5040650;28;20124;-65
2022/11/10 05:47:47;;;;;;;4.25;1.38;;;15.70;64.60;;;;;;5038286;28;20096;-63
2022/11/10 05:50:14;;;;;;;2.95;1.20;;;15.60;64.40;;;;;;5036852;28;20066;-64
2022/11/10 05:52:46;;;;;;;3.58;1.10;;;15.60;64.70;;;;;;5047689;28;20101;-66
2022/11/10 05:55:14;;;;;;;4.13;1.25;;;15.60;64.80;;;;;;5043053;28;20069;-65
2022/11/10 05:57:45;;;;;;;6.40;1.33;;;15.50;64.90;;;;;;5040785;28;20073;-66
2022/11/10 06:00:13;;;;;;;5.03;1.25;;;15.60;64.90;;;;;;5034070;28;20110;-60
2022/11/10 06:02:40;;;;;;;4.85;1.10;;;15.50;65.00;;;;;;5040795;28;20074;-65
2022/11/10 06:05:07;;;;;;;5.78;1.30;;;15.40;65.70;;;;;;5036931;28;20074;-64
2022/11/10 06:07:34;;;;;;;3.15;1.30;;;15.40;65.30;;;;;;5039400;28;20086;-68
2022/11/10 06:10:00;;;;;;;3.47;0.98;;;15.50;65.50;;;;;;5035938;28;20746;-67
2022/11/10 06:12:30;;;;;;;4.68;1.30;;;15.40;65.20;;;;;;5033719;28;20084;-66
2022/11/10 06:14:57;;;;;;;3.95;1.10;;;15.30;65.30;;;;;;5036261;28;20148;-64
2022/11/10 06:17:24;;;;;;;3.10;1.00;;;15.30;65.50;;;;;;5040603;28;20482;-65
2022/11/10 06:19:51;;;;;;;5.30;1.00;;;15.30;65.20;;;;;;5037816;28;20094;-64
2022/11/10 06:22:17;;;;;;;4.88;1.50;;;15.30;65.00;;;;;;5053265;28;20093;-65
2022/11/10 06:24:44;;;;;;;6.43;2.70;;;15.20;64.90;;;;;;5039928;28;20073;-66
2022/11/10 06:27:10;;;;;;;;;;;15.30;64.50;;;;;;5041485;28;20094;-66
2022/11/10 06:29:36;;;;;;;6.78;3.00;;;15.30;64.20;;;;;;5034120;28;19963;-65
2022/11/10 06:32:03;;;;;;;9.70;2.63;;;15.30;63.90;;;;;;5038336;28;20077;-65
2022/11/10 06:34:29;;;;;;;;;;;15.20;63.90;;;;;;5041453;28;20442;-66
2022/11/10 06:36:55;;;;;;;5.82;1.50;;;15.20;63.80;;;;;;5042761;28;19958;-64
2022/11/10 06:39:21;;;;;;;2.08;1.20;;;15.20;63.90;;;;;;5058678;28;20168;-64
2022/11/10 06:41:48;;;;;;;;;;;15.10;64.10;;;;;;5039163;28;20070;-64
2022/11/10 06:44:14;;;;;;;8.15;3.10;;;15.10;64.20;;;;;;5036091;28;20438;-65
2022/11/10 06:46:40;;;;;;;;;;;15.10;64.10;;;;;;5041617;28;20488;-68
2022/11/10 06:49:06;;;;;;;5.93;1.50;;;15.10;64.40;;;;;;5041713;28;20503;-65
2022/11/10 06:51:33;;;;;;;;;;;15.10;64.40;;;;;;5036116;28;20472;-63
2022/11/10 06:53:59;;;;;;;5.00;1.70;;;15.10;64.50;;;;;;5039645;28;19957;-65
2022/11/10 06:56:25;;;;;;;;;;;15.00;64.50;;;;;;5037901;28;20070;-65
2022/11/10 06:58:51;;;;;;;3.78;1.38;;;15.00;64.50;;;;;;5044775;28;19979;-66
2022/11/10 07:01:18;;;;;;;;;;;15.00;64.40;;;;;;5037779;28;20128;-65
2022/11/10 07:03:44;;;;;;;2.72;1.40;;;15.10;64.40;;;;;;5043597;28;20517;-64
2022/11/10 07:06:10;;;;;;;;;;;15.00;64.50;;;;;;5045319;28;20574;-64
2022/11/10 07:08:37;;;;;;;7.70;1.83;;;14.90;64.70;;;;;;5045036;28;19965;-64
2022/11/10 07:11:03;;;;;;;;;;;15.00;64.80;;;;;;5042071;28;20594;-65
2022/11/10 07:13:29;;;;;;;3.80;1.90;;;15.00;64.90;;;;;;5043766;28;21667;-64
2022/11/10 07:15:55;;;;;;;;;;;15.00;64.80;;;;;;5045805;28;20108;-65
2022/11/10 07:18:22;;;;;;;5.22;1.30;;;15.00;64.90;;;;;;5046074;28;19965;-65
2022/11/10 07:20:48;;;;;;;4.25;1.63;;;15.10;64.80;;;;;;5044954;28;20149;-66
2022/11/10 07:23:14;;;;;;;;;;;15.10;65.00;;;;;;5046004;28;20527;-64
2022/11/10 07:25:41;;;;;;;2.45;1.20;;;15.10;64.90;;;;;;5041207;28;19958;-65
2022/11/10 07:28:09;;;;;;;;;;;15.10;64.70;;;;;;5034807;28;20128;-65
2022/11/10 07:30:35;;;;;;;5.93;1.58;;;15.10;64.70;;;;;;5046980;28;19957;-65
2022/11/10 07:33:11;;;;;;;5.57;1.23;;;15.10;64.90;;;;;;5051859;28;20161;-65
2022/11/10 07:35:37;;;;;;;4.43;1.75;;;15.10;64.90;;;;;;5046245;28;20081;-64
2022/11/10 07:38:04;;;;;;;;;;;15.00;65.00;;;;;;5047306;28;20084;-63
2022/11/10 07:40:30;;;;;;;;;;;15.00;65.30;;;;;;5052066;28;20015;-63
2022/11/10 07:42:57;;;;;;;1.92;1.00;;;15.00;65.60;;;;;;5051338;28;19997;-65
2022/11/10 07:45:24;;;;;;;3.20;0.70;;;15.00;65.80;;;;;;5051591;28;20125;-66
2022/11/10 07:47:50;;;;;;;6.30;1.02;;;15.00;66.00;;;;;;5051395;28;20085;-64
2022/11/10 07:50:17;;;;;;;;;;;14.90;66.20;;;;;;5052492;28;20077;-65
2022/11/10 07:52:43;;;;;;;6.63;0.98;;;15.00;66.50;;;;;;5051483;28;20424;-65
2022/11/10 07:55:09;;;;;;;;;;;14.90;66.30;;;;;;5050135;28;20195;-65
2022/11/10 07:57:35;;;;;;;3.08;1.05;;;15.00;66.40;;;;;;5041485;28;19954;-62
2022/11/10 08:00:02;;;;;;;;;;;14.90;66.30;;;;;;5033288;28;20074;-66
2022/11/10 08:02:28;;;;;;;3.40;0.73;;;15.00;66.40;;;;;;5050124;28;20384;-66
2022/11/10 08:04:54;;;;;;;;;;;14.90;66.60;;;;;;5043328;28;20128;-63
2022/11/10 08:07:20;;;;;;;3.10;0.90;;;15.00;66.50;;;;;;5045705;28;19980;-64
2022/11/10 08:09:46;;;;;;;;;;;14.90;66.60;;;;;;5034769;28;20130;-65
2022/11/10 08:12:13;;;;;;;2.40;0.60;;;14.90;66.90;;;;;;5042912;28;20005;-64
2022/11/10 08:14:39;;;;;;;1.25;0.70;;;14.90;67.10;;;;;;5044804;28;20086;-65
2022/11/10 08:17:05;;;;;;;;;;;14.90;67.40;;;;;;5045200;28;20125;-65
2022/11/10 08:19:31;;;;;;;3.05;0.90;;;14.90;67.20;;;;;;5041462;28;19962;-65
2022/11/10 08:21:57;;;;;;;;;;;14.90;67.20;;;;;;5039115;28;20549;-63
2022/11/10 08:24:24;;;;;;;2.28;0.70;;;14.80;67.00;;;;;;5041861;28;19965;-64
2022/11/10 08:26:50;;;;;;;;;;;14.80;67.30;;;;;;5037514;28;20117;-64
2022/11/10 08:29:16;;;;;;;1.63;0.80;;;14.80;67.40;;;;;;5040114;28;20055;-66
2022/11/10 08:31:42;;;;;;;4.20;0.90;;;14.80;67.70;;;;;;5042111;28;20065;-63
2022/11/10 08:34:08;;;;;;;;;;;14.80;67.80;;;;;;5047537;28;20430;-65
2022/11/10 08:36:36;;;;;;;2.63;0.80;;;14.80;67.70;;;;;;5043932;28;19973;-66
2022/11/10 08:39:03;;;;;;;1.77;0.60;;;14.80;68.00;;;;;;5040048;28;20084;-62
2022/11/10 08:41:29;;;;;;;3.35;0.60;;;14.70;68.20;;;;;;5039291;28;20104;-65
2022/11/10 08:43:55;;;;;;;;;;;14.70;68.40;;;;;;5035230;28;20089;-65
2022/11/10 08:46:22;;;;;;;2.97;0.90;;;14.60;68.80;;;;;;5036539;28;19957;-65
2022/11/10 08:48:48;;;;;;;;;;;14.70;68.70;;;;;;5038123;28;20155;-64
2022/11/10 08:51:14;;;;;;;2.05;0.77;;;14.60;68.80;;;;;;5041346;28;20001;-65
2022/11/10 08:53:40;;;;;;;;;;;14.60;69.30;;;;;;5040108;28;20078;-65
2022/11/10 08:56:07;;;;;;;8.75;0.88;;;14.50;69.30;;;;;;5042915;28;20439;-64
2022/11/10 08:58:33;;;;;;;2.15;0.68;;;14.40;69.70;;;;;;5040844;28;20478;-65
2022/11/10 09:00:59;;;;;;;;;;;14.40;70.00;;;;;;5041238;28;20135;-66
2022/11/10 09:03:25;;;;;;;1.70;0.60;;;14.50;70.30;;;;;;5039106;28;20011;-65
2022/11/10 09:05:52;;;;;;;2.20;0.70;;;14.40;70.20;;;;;;5038179;28;20116;-65
2022/11/10 09:08:18;;;;;;;3.45;0.80;;;14.40;70.60;;;;;;5040226;28;20089;-63
2022/11/10 09:10:46;;;;;;;;;;;14.40;70.50;;;;;;5046616;28;20069;-64
2022/11/10 09:13:15;;;;;;;2.17;0.75;;;14.30;70.90;;;;;;5042557;28;19957;-66
2022/11/10 09:15:42;;;;;;;3.67;0.75;;;14.30;71.00;;;;;;5038928;28;20106;-65
2022/11/10 09:18:10;;;;;;;2.90;0.75;;;14.30;71.20;;;;;;5044268;28;20580;-65
2022/11/10 09:20:37;;;;;;;3.05;0.80;;;14.20;71.20;;;;;;5035771;28;20078;-63
2022/11/10 09:23:15;;;;;;;1.45;0.75;;;14.20;71.70;;;;;;5042451;28;20141;-66
2022/11/10 09:25:47;;;;;;;5.00;0.80;;;14.20;71.60;;;;;;5043824;28;20550;-66
2022/11/10 09:28:14;;;;;;;2.65;0.70;;;14.20;71.80;;;;;;5039859;28;20082;-64
2022/11/10 09:30:41;;;;;;;2.60;0.60;;;14.20;71.80;;;;;;5044891;28;20062;-64
2022/11/10 09:33:08;;;;;;;4.28;0.98;;;14.10;71.80;;;;;;5047309;28;20078;-64
2022/11/10 09:35:34;;;;;;;2.53;0.60;;;14.10;72.00;;;;;;5041442;28;20070;-65
2022/11/10 09:38:00;;;;;;;;;;;14.10;72.30;;;;;;5039938;28;20073;-63
2022/11/10 09:40:49;;;;;;;2.67;0.60;;;14.10;72.40;;;;;;5035272;28;20024;-66
2022/11/10 09:43:34;;;;;;;3.80;1.02;;;14.00;72.90;;;;;;5044159;28;20561;-66
2022/11/10 09:46:04;;;;;;;5.22;0.70;;;14.00;72.90;;;;;;5039735;28;20505;-65
2022/11/10 09:48:37;;;;;;;1.00;0.60;;;14.00;73.70;;;;;;5039746;28;20593;-64
2022/11/10 09:51:10;;;;;;;2.40;0.63;;;14.00;72.90;;;;;;5039753;28;20069;-63
2022/11/10 09:54:03;;;;;;;4.50;0.55;;;14.00;72.90;;;;;;5042983;28;20147;-63
2022/11/10 09:56:36;;;;;;;2.75;0.73;;;14.00;72.90;;;;;;5037596;28;20108;-64
2022/11/10 09:59:07;;;;;;;4.47;0.85;;;13.90;73.20;;;;;;5037259;28;20438;-65
2022/11/10 10:02:16;;;;;;;3.78;0.90;;;13.90;73.20;;;;;;5040193;28;20113;-65
2022/11/10 10:05:01;;;;;;;3.97;0.90;;;13.90;73.30;;;;;;5041821;28;20077;-65
2022/11/10 10:07:39;;;;;;;2.53;0.60;;;14.00;73.10;;;;;;5039621;28;20131;-66
2022/11/10 10:10:26;;;;;;;2.95;0.75;;;13.90;73.20;;;;;;5043484;28;20065;-65
2022/11/10 10:13:20;;;;;;;3.42;0.73;;;13.80;73.30;;;;;;5037006;28;20093;-66
2022/11/10 10:15:53;;;;;;;3.65;1.00;;;13.70;73.50;;;;;;5039716;28;20077;-63
2022/11/10 10:18:32;;;;;;;5.38;0.70;;;13.70;73.60;;;;;;5042697;28;20070;-64
2022/11/10 10:21:26;;;;;;;1.73;0.60;;;13.70;73.80;;;;;;5044303;28;20104;-65
2022/11/10 10:23:55;;;;;;;2.92;0.68;;;13.70;73.50;;;;;;5040733;28;20408;-65
2022/11/10 10:26:29;;;;;;;4.00;0.80;;;13.70;73.50;;;;;;5044478;28;20135;-65
2022/11/10 10:28:57;;;;;;;2.50;0.93;;;13.70;73.70;;;;;;5038644;28;20067;-66
2022/11/10 10:31:29;;;;;;;1.85;0.60;;;13.70;73.70;;;;;;5041052;28;20177;-64
2022/11/10 10:33:55;;;;;;;2.15;0.90;;;13.80;73.40;;;;;;5038237;28;20112;-63
2022/11/10 10:36:22;;;;;;;;;;;13.70;73.60;;;;;;5041878;28;20080;-65
2022/11/10 10:39:10;;;;;;;2.88;0.93;;;13.70;73.30;;;;;;5040873;28;20039;-64
2022/11/10 10:41:36;;;;;;;4.00;0.60;;;13.70;73.30;;;;;;5044197;28;20156;-64
2022/11/10 10:44:11;;;;;;;5.28;0.70;;;13.70;73.40;;;;;;5044992;28;20072;-63
2022/11/10 10:46:59;;;;;;;2.72;0.60;;;13.70;73.10;;;;;;5041697;28;20862;-64
2022/11/10 10:49:30;;;;;;;1.92;0.68;;;13.60;73.40;;;;;;5043036;28;20077;-64
2022/11/10 10:52:14;;;;;;;2.65;0.60;;;13.60;73.90;;;;;;5040359;28;20077;-64
2022/11/10 10:54:40;;;;;;;38.65;18.75;;;13.60;73.50;;;;;;5048607;28;20430;-65
2022/11/10 10:57:19;;;;;;;;;;;13.50;73.40;;;;;;5043627;28;20092;-65
2022/11/10 10:59:48;;;;;;;4.03;0.77;;;13.50;73.70;;;;;;5045868;28;19999;-63
2022/11/10 11:02:31;;;;;;;0.82;0.50;;;13.40;73.70;;;;;;5040346;28;20501;-64
2022/11/10 11:05:15;;;;;;;2.60;0.52;;;13.40;73.70;;;;;;5043439;28;20094;-64
2022/11/10 11:07:52;;;;;;;5.60;0.90;;;13.40;73.70;;;;;;5044921;28;20447;-63
2022/11/10 11:10:32;;;;;;;3.05;0.70;;;13.40;73.60;;;;;;5042984;28;20423;-65
2022/11/10 11:13:26;;;;;;;5.32;0.82;;;13.40;73.70;;;;;;5044568;28;20070;-63
2022/11/10 11:16:00;;;;;;;4.80;0.90;;;13.30;74.10;;;;;;5042126;28;20142;-64
2022/11/10 11:18:30;;;;;;;3.90;0.63;;;13.30;74.40;;;;;;5039005;28;20085;-64
2022/11/10 11:21:16;;;;;;;5.55;0.85;;;13.30;74.60;;;;;;5046397;28;20088;-65
2022/11/10 11:24:01;;;;;;;6.10;1.35;;;13.30;74.40;;;;;;5042000;28;20097;-64
2022/11/10 11:26:50;;;;;;;6.05;2.45;;;13.30;75.30;;;;;;5043392;28;20082;-65
2022/11/10 11:29:41;;;;;;;7.10;3.28;;;13.30;75.00;;;;;;5039642;28;20083;-66
2022/11/10 11:32:29;;;;;;;17.83;3.45;;;13.30;75.10;;;;;;5042556;28;20577;-64
2022/11/10 11:34:55;;;;;;;;;;;13.20;75.00;;;;;;5043991;28;20079;-67
2022/11/10 11:37:33;;;;;;;13.13;2.83;;;13.10;75.60;;;;;;5043385;28;20040;-64
2022/11/10 11:40:11;;;;;;;11.75;2.58;;;13.10;75.60;;;;;;5043650;28;20074;-67
2022/11/10 11:42:59;;;;;;;8.05;2.70;;;13.20;75.70;;;;;;5038267;28;20070;-65
2022/11/10 11:45:46;;;;;;;9.27;2.75;;;13.10;75.60;;;;;;5045597;28;20081;-65
2022/11/10 11:48:26;;;;;;;8.80;2.40;;;13.10;75.20;;;;;;5036482;28;20086;-64
2022/11/10 11:51:10;;;;;;;7.00;2.50;;;13.00;75.30;;;;;;5039411;28;20070;-64
2022/11/10 11:53:42;;;;;;;6.82;2.28;;;13.00;75.60;;;;;;5043764;28;20205;-62
2022/11/10 11:56:26;;;;;;;7.70;2.40;;;13.00;75.60;;;;;;5039509;28;20481;-65
2022/11/10 11:59:26;;;;;;;9.43;1.83;;;13.00;76.00;;;;;;5044276;28;20182;-65
2022/11/10 12:02:11;;;;;;;8.48;2.03;;;13.00;75.30;;;;;;5022950;28;20117;-65
2022/11/10 12:04:44;;;;;;;7.32;1.92;;;12.80;75.50;;;;;;5038343;28;20085;-64
2022/11/10 12:07:37;;;;;;;3.20;1.40;;;12.80;75.50;;;;;;5040960;28;20136;-63
2022/11/10 12:10:21;;;;;;;9.82;1.63;;;12.80;75.60;;;;;;5045892;28;20430;-65
2022/11/10 12:13:29;;;;;;;6.45;1.60;;;12.80;75.30;;;;;;5038473;28;20080;-64
2022/11/10 12:16:25;;;;;;;7.28;1.50;;;12.60;76.10;;;;;;5037043;28;20089;-65
2022/11/10 12:18:56;;;;;;;4.80;1.60;;;12.70;76.20;;;;;;5039141;28;20066;-64
2022/11/10 12:21:24;;;;;;;9.68;1.90;;;12.70;75.90;;;;;;5040915;28;20113;-64
2022/11/10 12:24:12;;;;;;;5.15;1.40;;;12.60;76.90;;;;;;5043119;28;20074;-65
2022/11/10 12:27:10;;;;;;;3.88;1.30;;;12.60;76.50;;;;;;5040960;28;20094;-65
2022/11/10 12:29:54;;;;;;;8.30;1.52;;;12.50;76.60;;;;;;5045089;28;20081;-64
2022/11/10 12:32:58;;;;;;;6.45;1.35;;;12.60;76.50;;;;;;5041789;28;20589;-64
2022/11/10 12:35:34;;;;;;;12.93;1.83;;;12.60;76.20;;;;;;5044980;28;21551;-64
2022/11/10 12:38:05;;;;;;;5.88;1.20;;;12.60;75.60;;;;;;5044801;28;20080;-65
2022/11/10 12:40:38;;;;;;;4.78;1.17;;;12.60;76.00;;;;;;5046347;28;20085;-65
2022/11/10 12:43:26;;;;;;;4.18;1.17;;;12.60;75.80;;;;;;5040939;28;20069;-65
2022/11/10 12:45:57;;;;;;;5.38;0.90;;;12.60;76.10;;;;;;5039520;28;20087;-64
2022/11/10 12:48:26;;;;;;;4.10;0.98;;;12.60;75.40;;;;;;5046055;28;20625;-65
2022/11/10 12:51:11;;;;;;;7.95;1.25;;;12.60;75.20;;;;;;5039934;28;20532;-65
2022/11/10 12:53:40;;;;;;;3.30;1.13;;;12.60;75.00;;;;;;5044477;28;20156;-63
2022/11/10 12:56:29;;;;;;;5.57;1.05;;;12.60;75.00;;;;;;5040167;28;20220;-65
2022/11/10 12:59:29;;;;;;;7.30;0.93;;;12.60;75.30;;;;;;5036990;28;20445;-65
2022/11/10 13:02:15;;;;;;;6.25;1.00;;;12.70;75.10;;;;;;5034523;28;20535;-64
2022/11/10 13:04:42;;;;;;;3.97;1.20;;;12.70;75.30;;;;;;5042413;28;20523;-63
2022/11/10 13:07:12;;;;;;;5.50;1.08;;;12.70;75.30;;;;;;5036824;28;20173;-65
2022/11/10 13:09:43;;;;;;;6.25;1.20;;;12.70;75.40;;;;;;5043908;28;20085;-65
2022/11/10 13:12:18;;;;;;;3.15;1.30;;;12.70;75.50;;;;;;5040051;28;20076;-64
2022/11/10 13:14:49;;;;;;;6.10;1.10;;;12.70;75.70;;;;;;5035960;28;20139;-65
2022/11/10 13:17:55;;;;;;;4.80;0.82;;;12.70;76.40;;;;;;5032869;28;20132;-64
2022/11/10 13:20:51;;;;;;;4.57;1.10;;;12.60;76.50;;;;;;5045458;28;20112;-66
2022/11/10 13:23:29;;;;;;;5.25;1.00;;;12.50;76.70;;;;;;4968381;28;20091;-66
2022/11/10 13:25:57;;;;;;;4.28;1.02;;;12.60;76.20;;;;;;4969482;28;20079;-64
2022/11/10 13:28:47;;;;;;;5.60;1.15;;;12.60;75.80;;;;;;4969047;28;20139;-66
2022/11/10 13:31:32;;;;;;;6.20;1.20;;;12.60;76.50;;;;;;4969633;28;20545;-64